createdAt,value
2019-02-03T00:00:33.927Z,35.83
2019-02-03T00:03:05.746Z,33.02
2019-02-03T00:05:37.810Z,31.17
2019-02-03T00:08:09.622Z,33.00
2019-02-03T00:10:41.154Z,33.50
2019-02-03T00:13:12.722Z,32.10
2019-02-03T00:15:47.404Z,33.53
2019-02-03T00:18:18.798Z,33.05
2019-02-03T00:20:50.441Z,35.25
2019-02-03T00:23:21.860Z,30.65
2019-02-03T00:25:53.369Z,32.67
2019-02-03T00:28:28.797Z,33.60
2019-02-03T00:31:00.445Z,34.48
2019-02-03T00:33:32.195Z,35.17
2019-02-03T00:36:07.055Z,34.63
2019-02-03T00:38:39.124Z,32.63
2019-02-03T00:41:10.843Z,33.15
2019-02-03T00:43:45.603Z,33.13
2019-02-03T00:46:17.253Z,33.83
2019-02-03T00:48:50.545Z,33.45
2019-02-03T00:51:22.131Z,34.25
2019-02-03T00:53:53.814Z,34.85
2019-02-03T00:56:28.217Z,34.48
2019-02-03T00:58:59.851Z,35.17
2019-02-03T01:01:34.596Z,36.28
2019-02-03T01:04:04.796Z,36.68
2019-02-03T01:06:36.631Z,33.83
2019-02-03T01:09:12.183Z,34.95
2019-02-03T01:11:49.826Z,35.10
2019-02-03T01:14:21.751Z,32.65
2019-02-03T01:16:53.367Z,35.33
2019-02-03T01:19:30.334Z,35.40
2019-02-03T01:22:02.088Z,29.95
2019-02-03T01:24:33.697Z,33.02
2019-02-03T01:27:05.440Z,31.97
2019-02-03T01:29:39.695Z,30.77
2019-02-03T01:32:11.604Z,31.02
2019-02-03T01:34:43.506Z,33.08
2019-02-03T01:37:15.141Z,30.17
2019-02-03T01:39:48.387Z,31.23
2019-02-03T01:42:20.057Z,31.65
2019-02-03T01:44:54.740Z,32.15
2019-02-03T01:47:26.653Z,28.95
2019-02-03T01:49:58.284Z,29.70
2019-02-03T01:52:29.845Z,29.42
2019-02-03T01:55:01.643Z,28.07
2019-02-03T01:57:33.215Z,29.35
2019-02-03T02:00:06.942Z,29.72
2019-02-03T02:02:38.556Z,27.10
2019-02-03T02:05:10.376Z,26.15
2019-02-03T02:07:51.192Z,24.72
2019-02-03T02:10:21.199Z,26.15
2019-02-03T02:12:52.718Z,24.98
2019-02-03T02:15:24.465Z,25.23
2019-02-03T02:17:55.989Z,23.83
2019-02-03T02:20:28.595Z,27.02
2019-02-03T02:23:02.607Z,24.07
2019-02-03T02:25:34.388Z,24.40
2019-02-03T02:28:06.288Z,25.10
2019-02-03T02:30:39.890Z,26.27
2019-02-03T02:33:11.404Z,25.32
2019-02-03T02:35:43.264Z,24.57
2019-02-03T02:38:14.999Z,22.25
2019-02-03T02:40:46.730Z,23.85
2019-02-03T02:43:18.210Z,22.77
2019-02-03T02:45:49.951Z,21.62
2019-02-03T02:48:21.573Z,24.90
2019-02-03T02:50:53.045Z,24.75
2019-02-03T02:53:27.115Z,24.47
2019-02-03T02:56:01.572Z,24.47
2019-02-03T02:58:37.589Z,24.57
2019-02-03T03:01:09.084Z,23.60
2019-02-03T03:03:40.854Z,25.90
2019-02-03T03:06:14.152Z,25.82
2019-02-03T03:08:46.718Z,24.43
2019-02-03T03:11:19.698Z,23.95
2019-02-03T03:13:54.058Z,22.82
2019-02-03T03:16:25.585Z,23.15
2019-02-03T03:18:56.935Z,23.05
2019-02-03T03:21:28.505Z,24.67
2019-02-03T03:24:00.104Z,22.77
2019-02-03T03:26:31.792Z,23.95
2019-02-03T03:29:03.460Z,24.15
2019-02-03T03:31:35.004Z,23.02
2019-02-03T03:34:08.534Z,21.45
2019-02-03T03:36:43.813Z,22.98
2019-02-03T03:39:18.245Z,24.40
2019-02-03T03:41:56.353Z,22.15
2019-02-03T03:44:31.069Z,23.80
2019-02-03T03:47:06.675Z,24.40
2019-02-03T03:49:41.071Z,21.40
2019-02-03T03:52:15.768Z,23.07
2019-02-03T03:54:57.295Z,22.13
2019-02-03T03:57:41.871Z,22.32
2019-02-03T04:00:23.314Z,23.25
2019-02-03T04:02:55.710Z,22.75
2019-02-03T04:05:37.321Z,23.07
2019-02-03T04:08:14.541Z,23.05
2019-02-03T04:11:01.304Z,21.80
2019-02-03T04:13:33.892Z,23.45
2019-02-03T04:16:05.627Z,23.47
2019-02-03T04:18:44.602Z,23.42
2019-02-03T04:21:23.450Z,22.42
2019-02-03T04:24:00.072Z,20.97
2019-02-03T04:26:31.940Z,20.65
2019-02-03T04:29:13.571Z,22.48
2019-02-03T04:31:56.087Z,20.80
2019-02-03T04:34:32.991Z,20.75
2019-02-03T04:37:17.788Z,20.57
2019-02-03T04:39:55.285Z,20.77
2019-02-03T04:42:27.422Z,21.25
2019-02-03T04:45:08.806Z,19.42
2019-02-03T04:48:03.049Z,21.45
2019-02-03T04:50:34.902Z,21.85
2019-02-03T04:53:08.682Z,22.00
2019-02-03T04:55:55.094Z,22.05
2019-02-03T04:58:39.866Z,21.45
2019-02-03T05:01:27.439Z,22.52
2019-02-03T05:04:07.326Z,21.05
2019-02-03T05:06:52.482Z,21.42
2019-02-03T05:09:26.007Z,21.15
2019-02-03T05:12:01.175Z,20.70
2019-02-03T05:14:35.798Z,24.07
2019-02-03T05:17:12.395Z,21.20
2019-02-03T05:19:46.665Z,21.82
2019-02-03T05:22:33.477Z,23.15
2019-02-03T05:25:09.093Z,21.73
2019-02-03T05:27:48.339Z,22.15
2019-02-03T05:30:26.298Z,21.12
2019-02-03T05:32:58.869Z,26.45
2019-02-03T05:35:31.435Z,22.60
2019-02-03T05:38:16.755Z,24.80
2019-02-03T05:40:49.375Z,23.20
2019-02-03T05:43:25.813Z,24.00
2019-02-03T05:46:02.512Z,21.45
2019-02-03T05:48:36.945Z,22.40
2019-02-03T05:51:20.302Z,24.40
2019-02-03T05:53:56.162Z,22.50
2019-02-03T05:56:31.876Z,24.23
2019-02-03T05:59:09.190Z,24.15
2019-02-03T06:01:45.740Z,25.57
2019-02-03T06:04:27.046Z,23.90
2019-02-03T06:06:59.289Z,26.33
2019-02-03T06:09:36.760Z,24.35
2019-02-03T06:12:07.195Z,27.22
2019-02-03T06:15:03.970Z,25.45
2019-02-03T06:17:45.646Z,27.35
2019-02-03T06:20:44.394Z,27.40
2019-02-03T06:23:25.145Z,23.52
2019-02-03T06:26:28.006Z,26.73
2019-02-03T06:29:02.419Z,24.95
2019-02-03T06:31:38.095Z,25.65
2019-02-03T06:34:29.571Z,24.87
2019-02-03T06:37:03.997Z,25.65
2019-02-03T06:39:48.085Z,28.40
2019-02-03T06:42:20.375Z,27.22
2019-02-03T06:45:42.942Z,27.32
2019-02-03T06:48:50.543Z,28.15
2019-02-03T06:51:23.659Z,28.83
2019-02-03T06:54:23.122Z,30.02
2019-02-03T06:57:12.192Z,27.32
2019-02-03T06:59:50.901Z,27.50
2019-02-03T07:02:23.397Z,27.27
2019-02-03T07:05:04.772Z,29.12
2019-02-03T07:08:07.485Z,30.32
2019-02-03T07:11:02.691Z,30.52
2019-02-03T07:13:34.381Z,29.15
2019-02-03T07:16:06.020Z,29.92
2019-02-03T07:18:37.545Z,31.45
2019-02-03T07:21:09.042Z,29.50
2019-02-03T07:23:40.510Z,30.75
2019-02-03T07:26:12.009Z,32.50
2019-02-03T07:28:43.610Z,30.65
2019-02-03T07:31:15.256Z,33.02
2019-02-03T07:33:47.951Z,33.30
2019-02-03T07:36:20.569Z,34.50
2019-02-03T07:38:52.094Z,34.92
2019-02-03T07:41:23.513Z,32.45
2019-02-03T07:43:55.064Z,32.58
2019-02-03T07:46:26.523Z,36.70
2019-02-03T07:48:58.138Z,31.87
2019-02-03T07:51:29.659Z,36.93
2019-02-03T07:54:08.410Z,33.95
2019-02-03T07:56:34.299Z,36.53
2019-02-03T07:59:06.474Z,33.10
2019-02-03T08:01:37.896Z,33.60
2019-02-03T08:04:09.403Z,34.35
2019-02-03T08:06:40.921Z,34.98
2019-02-03T08:09:12.819Z,35.25
2019-02-03T08:11:44.267Z,36.83
2019-02-03T08:14:15.771Z,35.83
2019-02-03T08:16:47.184Z,36.08
2019-02-03T08:19:18.657Z,36.70
2019-02-03T08:21:50.075Z,37.40
2019-02-03T08:24:22.793Z,37.03
2019-02-03T08:26:54.178Z,35.15
2019-02-03T08:29:25.558Z,37.40
2019-02-03T08:31:57.009Z,36.20
2019-02-03T08:34:28.405Z,37.93
2019-02-03T08:37:00.119Z,37.53
2019-02-03T08:39:31.561Z,35.75
2019-02-03T08:42:03.153Z,37.48
2019-02-03T08:44:34.565Z,35.33
2019-02-03T08:47:07.178Z,34.80
2019-02-03T08:49:38.657Z,37.53
2019-02-03T08:52:10.155Z,35.08
2019-02-03T08:54:50.859Z,37.05
2019-02-03T08:57:14.791Z,32.63
2019-02-03T08:59:46.141Z,33.80
2019-02-03T09:02:17.541Z,32.25
2019-02-03T09:04:48.916Z,32.73
2019-02-03T09:07:20.283Z,30.52
2019-02-03T09:09:51.761Z,28.98
2019-02-03T09:12:23.594Z,29.87
2019-02-03T09:14:55.028Z,28.57
2019-02-03T09:17:26.615Z,27.77
2019-02-03T09:19:58.255Z,25.82
2019-02-03T09:22:29.950Z,25.88
2019-02-03T09:25:01.677Z,25.72
2019-02-03T09:27:33.165Z,28.07
2019-02-03T09:30:07.041Z,30.23
2019-02-03T09:32:38.737Z,28.17
2019-02-03T09:35:11.739Z,28.40
2019-02-03T09:37:43.257Z,27.35
2019-02-03T09:40:18.998Z,27.42
2019-02-03T09:42:50.352Z,26.82
2019-02-03T09:45:22.712Z,29.30
2019-02-03T09:47:54.191Z,26.45
2019-02-03T09:50:30.934Z,27.13
2019-02-03T09:53:03.200Z,26.52
2019-02-03T09:55:34.836Z,24.43
2019-02-03T09:58:07.122Z,25.20
2019-02-03T10:00:39.480Z,23.40
2019-02-03T10:03:11.803Z,25.10
2019-02-03T10:05:43.184Z,23.57
2019-02-03T10:08:16.009Z,24.60
2019-02-03T10:10:48.517Z,23.18
2019-02-03T10:13:19.927Z,22.32
2019-02-03T10:15:52.365Z,22.70
2019-02-03T10:18:23.950Z,21.12
2019-02-03T10:20:55.418Z,21.52
2019-02-03T10:23:27.107Z,22.62
2019-02-03T10:25:58.885Z,20.70
2019-02-03T10:28:30.275Z,20.57
2019-02-03T10:31:01.835Z,21.52
2019-02-03T10:33:33.741Z,23.73
2019-02-03T10:36:05.453Z,21.45
2019-02-03T10:38:37.138Z,20.77
2019-02-03T10:41:08.659Z,20.25
2019-02-03T10:43:42.463Z,19.00
2019-02-03T10:46:13.916Z,18.60
2019-02-03T10:48:45.316Z,18.17
2019-02-03T10:51:16.751Z,19.95
2019-02-03T10:53:48.346Z,16.97
2019-02-03T10:56:19.838Z,16.67
2019-02-03T10:58:52.141Z,17.80
2019-02-03T11:01:23.645Z,16.90
2019-02-03T11:03:56.688Z,20.97
2019-02-03T11:06:28.275Z,17.20
2019-02-03T11:08:59.757Z,21.40
2019-02-03T11:11:36.598Z,17.82
2019-02-03T11:14:04.835Z,16.80
2019-02-03T11:16:36.418Z,14.87
2019-02-03T11:19:07.949Z,16.85
2019-02-03T11:21:39.692Z,16.23
2019-02-03T11:24:11.237Z,14.75
2019-02-03T11:26:42.718Z,16.25
2019-02-03T11:29:14.265Z,13.38
2019-02-03T11:31:45.787Z,15.28
2019-02-03T11:34:17.158Z,16.02
2019-02-03T11:36:48.757Z,16.25
2019-02-03T11:39:20.251Z,17.37
2019-02-03T11:41:51.723Z,17.42
2019-02-03T11:44:23.121Z,17.70
2019-02-03T11:46:54.455Z,19.70
2019-02-03T11:49:26.150Z,18.07
2019-02-03T11:51:57.710Z,17.15
2019-02-03T11:54:29.162Z,17.75
2019-02-03T11:57:00.640Z,15.90
2019-02-03T11:59:32.190Z,18.85
2019-02-03T12:02:03.620Z,16.55
2019-02-03T12:04:35.532Z,16.42
2019-02-03T12:07:06.956Z,15.83
2019-02-03T12:09:38.475Z,18.57
2019-02-03T12:12:09.878Z,16.40
2019-02-03T12:14:43.358Z,16.95
2019-02-03T12:17:14.765Z,17.90
2019-02-03T12:19:46.274Z,16.12
2019-02-03T12:22:17.745Z,16.65
2019-02-03T12:24:49.127Z,15.28
2019-02-03T12:27:20.633Z,16.48
2019-02-03T12:29:52.108Z,16.50
2019-02-03T12:32:23.418Z,16.93
2019-02-03T12:34:54.844Z,16.07
2019-02-03T12:37:26.343Z,15.68
2019-02-03T12:39:57.806Z,16.12
2019-02-03T12:42:29.242Z,17.00
2019-02-03T12:45:00.698Z,16.40
2019-02-03T12:47:32.532Z,14.70
2019-02-03T12:50:04.032Z,15.05
2019-02-03T12:52:35.510Z,16.15
2019-02-03T12:55:09.081Z,27.85
2019-02-03T12:57:42.687Z,15.65
2019-02-03T13:00:20.945Z,15.18
2019-02-03T13:02:52.558Z,14.23
2019-02-03T13:05:25.268Z,13.98
2019-02-03T13:07:57.953Z,13.98
2019-02-03T13:10:34.711Z,14.60
2019-02-03T13:13:07.454Z,16.93
2019-02-03T13:15:45.367Z,15.23
2019-02-03T13:18:16.846Z,16.12
2019-02-03T13:20:48.333Z,15.90
2019-02-03T13:23:20.766Z,17.55
2019-02-03T13:25:54.796Z,18.45
2019-02-03T13:28:26.520Z,18.67
2019-02-03T13:30:57.975Z,20.82
2019-02-03T13:33:29.509Z,19.95
2019-02-03T13:36:01.020Z,19.55
2019-02-03T13:38:37.067Z,17.20
2019-02-03T13:41:08.782Z,18.12
2019-02-03T13:43:40.222Z,21.73
2019-02-03T13:46:11.626Z,20.23
2019-02-03T13:48:43.033Z,21.62
2019-02-03T13:51:14.433Z,19.07
2019-02-03T13:53:45.881Z,20.90
2019-02-03T13:56:17.401Z,23.85
2019-02-03T13:58:48.791Z,21.80
2019-02-03T14:01:20.121Z,18.62
2019-02-03T14:03:51.832Z,18.35
2019-02-03T14:06:23.344Z,20.17
2019-02-03T14:08:54.751Z,19.60
2019-02-03T14:11:26.168Z,19.80
2019-02-03T14:13:57.629Z,19.92
2019-02-03T14:16:29.312Z,18.23
2019-02-03T14:19:01.016Z,18.62
2019-02-03T14:21:32.508Z,19.17
2019-02-03T14:24:03.918Z,17.62
2019-02-03T14:26:35.533Z,19.35
2019-02-03T14:29:06.895Z,19.62
2019-02-03T14:31:38.338Z,19.42
2019-02-03T14:34:10.121Z,20.90
2019-02-03T14:36:41.621Z,20.90
2019-02-03T14:39:13.354Z,21.55
2019-02-03T14:41:44.818Z,21.80
2019-02-03T14:44:16.298Z,22.75
2019-02-03T14:46:48.015Z,20.72
2019-02-03T14:49:19.465Z,20.50
2019-02-03T14:51:50.995Z,20.12
2019-02-03T14:54:22.440Z,20.85
2019-02-03T14:56:53.940Z,19.77
2019-02-03T14:59:25.411Z,21.12
2019-02-03T15:01:57.096Z,19.02
2019-02-03T15:04:28.563Z,20.02
2019-02-03T15:07:00.013Z,20.55
2019-02-03T15:09:31.511Z,20.35
2019-02-03T15:12:02.979Z,19.15
2019-02-03T15:14:37.622Z,20.62
2019-02-03T15:17:09.071Z,21.65
2019-02-03T15:19:40.564Z,20.57
2019-02-03T15:22:11.999Z,20.37
2019-02-03T15:24:43.429Z,21.52
2019-02-03T15:27:14.838Z,20.25
2019-02-03T15:29:46.300Z,21.07
2019-02-03T15:32:17.717Z,21.45
2019-02-03T15:34:49.238Z,20.55
2019-02-03T15:37:20.941Z,22.17
2019-02-03T15:39:55.007Z,22.45
2019-02-03T15:42:27.664Z,21.48
2019-02-03T15:45:00.971Z,22.00
2019-02-03T15:47:32.909Z,21.05
2019-02-03T15:50:05.348Z,22.48
2019-02-03T15:52:36.849Z,21.65
2019-02-03T15:55:10.248Z,24.15
2019-02-03T15:57:41.806Z,19.95
2019-02-03T16:00:20.443Z,20.00
2019-02-03T16:02:52.104Z,21.12
2019-02-03T16:05:24.112Z,20.52
2019-02-03T16:07:55.560Z,19.98
2019-02-03T16:10:27.672Z,21.97
2019-02-03T16:12:59.145Z,23.38
2019-02-03T16:15:30.587Z,20.50
2019-02-03T16:18:02.099Z,18.40
2019-02-03T16:20:33.524Z,21.52
2019-02-03T16:23:05.213Z,22.48
2019-02-03T16:25:36.885Z,20.85
2019-02-03T16:28:08.794Z,21.20
2019-02-03T16:30:40.644Z,20.50
2019-02-03T16:33:12.616Z,20.97
2019-02-03T16:35:44.031Z,22.35
2019-02-03T16:38:23.030Z,23.52
2019-02-03T16:40:48.951Z,20.97
2019-02-03T16:43:20.559Z,20.43
2019-02-03T16:45:52.006Z,21.70
2019-02-03T16:48:23.550Z,19.27
2019-02-03T16:50:55.091Z,18.70
2019-02-03T16:53:26.566Z,20.37
2019-02-03T16:55:57.963Z,19.20
2019-02-03T16:58:29.655Z,18.62
2019-02-03T17:01:01.104Z,20.17
2019-02-03T17:03:32.782Z,17.90
2019-02-03T17:06:04.213Z,20.25
2019-02-03T17:08:35.688Z,20.60
2019-02-03T17:11:07.586Z,18.27
2019-02-03T17:13:39.015Z,19.32
2019-02-03T17:16:10.881Z,19.80
2019-02-03T17:18:42.319Z,25.95
2019-02-03T17:21:14.126Z,19.82
2019-02-03T17:23:45.457Z,19.55
2019-02-03T17:26:16.893Z,18.23
2019-02-03T17:28:48.335Z,15.93
2019-02-03T17:31:19.898Z,16.45
2019-02-03T17:33:51.338Z,16.27
2019-02-03T17:36:22.759Z,15.60
2019-02-03T17:38:54.133Z,16.35
2019-02-03T17:41:25.713Z,15.03
2019-02-03T17:43:57.288Z,15.93
2019-02-03T17:46:28.718Z,15.90
2019-02-03T17:49:00.207Z,16.07
2019-02-03T17:51:31.645Z,15.95
2019-02-03T17:54:03.133Z,14.70
2019-02-03T17:56:34.517Z,14.55
2019-02-03T17:59:07.981Z,14.73
2019-02-03T18:01:42.795Z,16.20
2019-02-03T18:04:15.349Z,15.15
2019-02-03T18:06:55.898Z,15.50
2019-02-03T18:09:48.409Z,15.60
2019-02-03T18:12:20.234Z,14.45
2019-02-03T18:15:07.010Z,13.30
2019-02-03T18:17:42.911Z,15.03
2019-02-03T18:20:28.023Z,14.25
2019-02-03T18:23:04.372Z,14.30
2019-02-03T18:26:29.653Z,14.83
2019-02-03T18:29:19.745Z,15.80
2019-02-03T18:32:16.270Z,15.75
2019-02-03T18:35:00.561Z,14.33
2019-02-03T18:37:58.107Z,15.93
2019-02-03T18:40:35.931Z,15.08
2019-02-03T18:43:35.189Z,15.70
2019-02-03T18:46:07.427Z,14.28
2019-02-03T18:48:40.749Z,15.60
2019-02-03T18:51:14.468Z,13.85
2019-02-03T18:53:49.334Z,13.10
2019-02-03T18:56:21.145Z,15.10
2019-02-03T18:58:54.943Z,14.38
2019-02-03T19:01:26.372Z,13.65
2019-02-03T19:03:58.027Z,14.45
2019-02-03T19:06:29.514Z,15.20
2019-02-03T19:09:01.949Z,12.25
2019-02-03T19:11:35.032Z,15.20
2019-02-03T19:14:07.234Z,16.45
2019-02-03T19:16:39.767Z,12.98
2019-02-03T19:19:11.532Z,12.68
2019-02-03T19:21:43.256Z,12.65
2019-02-03T19:24:14.782Z,13.48
2019-02-03T19:26:46.272Z,11.68
2019-02-03T19:29:17.751Z,12.78
2019-02-03T19:31:49.182Z,18.92
2019-02-03T19:34:20.670Z,14.75
2019-02-03T19:36:52.098Z,12.80
2019-02-03T19:39:23.561Z,11.57
2019-02-03T19:41:54.927Z,9.68
2019-02-03T19:44:26.641Z,9.93
2019-02-03T19:46:58.145Z,11.08
2019-02-03T19:49:29.623Z,8.75
2019-02-03T19:52:01.108Z,8.65
2019-02-03T19:54:32.552Z,8.90
2019-02-03T19:57:03.980Z,9.75
2019-02-03T19:59:46.305Z,9.48
2019-02-03T20:02:09.051Z,11.22
2019-02-03T20:04:40.689Z,9.63
2019-02-03T20:07:12.568Z,9.35
2019-02-03T20:09:44.086Z,10.70
2019-02-03T20:12:15.730Z,9.03
2019-02-03T20:14:47.165Z,9.40
2019-02-03T20:17:18.713Z,9.75
2019-02-03T20:19:52.854Z,11.93
2019-02-03T20:22:24.613Z,10.13
2019-02-03T20:24:56.156Z,11.93
2019-02-03T20:27:27.919Z,12.35
2019-02-03T20:29:59.478Z,11.78
2019-02-03T20:32:31.055Z,12.13
2019-02-03T20:35:02.694Z,9.85
2019-02-03T20:37:34.263Z,10.30
2019-02-03T20:40:06.472Z,9.40
2019-02-03T20:42:39.587Z,10.63
2019-02-03T20:45:20.997Z,11.08
2019-02-03T20:47:45.369Z,10.88
2019-02-03T20:50:21.353Z,10.05
2019-02-03T20:52:53.088Z,9.28
2019-02-03T20:55:24.647Z,9.23
2019-02-03T20:57:57.220Z,9.03
2019-02-03T21:00:31.486Z,8.83
2019-02-03T21:03:03.347Z,8.18
2019-02-03T21:05:35.193Z,9.18
2019-02-03T21:08:06.952Z,9.90
2019-02-03T21:10:38.530Z,7.70
2019-02-03T21:13:11.579Z,8.03
2019-02-03T21:15:43.627Z,7.03
2019-02-03T21:18:15.095Z,7.15
2019-02-03T21:20:46.738Z,7.92
2019-02-03T21:23:19.922Z,8.05
2019-02-03T21:25:51.489Z,8.58
2019-02-03T21:28:23.028Z,6.90
2019-02-03T21:30:54.476Z,7.75
2019-02-03T21:33:25.860Z,8.08
2019-02-03T21:35:57.307Z,7.20
2019-02-03T21:38:28.806Z,7.97
2019-02-03T21:41:00.275Z,7.60
2019-02-03T21:43:31.876Z,7.70
2019-02-03T21:46:03.326Z,8.45
2019-02-03T21:48:34.775Z,7.75
2019-02-03T21:51:06.214Z,8.23
2019-02-03T21:53:38.209Z,7.22
2019-02-03T21:56:09.707Z,7.50
2019-02-03T21:58:41.164Z,8.53
2019-02-03T22:01:12.569Z,7.75
2019-02-03T22:03:43.961Z,7.08
2019-02-03T22:06:15.509Z,7.37
2019-02-03T22:08:47.019Z,7.03
2019-02-03T22:11:18.406Z,7.08
2019-02-03T22:13:50.001Z,7.90
2019-02-03T22:16:23.219Z,7.67
2019-02-03T22:18:54.561Z,7.92
2019-02-03T22:21:26.072Z,7.03
2019-02-03T22:23:58.773Z,6.70
2019-02-03T22:26:30.424Z,7.10
2019-02-03T22:29:02.208Z,7.20
2019-02-03T22:31:33.756Z,7.83
2019-02-03T22:34:05.778Z,7.25
2019-02-03T22:36:37.376Z,6.40
2019-02-03T22:39:10.301Z,7.87
2019-02-03T22:41:42.816Z,7.22
2019-02-03T22:44:14.272Z,7.47
2019-02-03T22:46:45.717Z,6.67
2019-02-03T22:49:17.056Z,6.45
2019-02-03T22:51:48.751Z,7.47
2019-02-03T22:54:20.528Z,6.17
2019-02-03T22:56:52.202Z,6.25
2019-02-03T22:59:23.617Z,6.20
2019-02-03T23:01:55.204Z,5.92
2019-02-03T23:04:30.908Z,6.35
2019-02-03T23:07:02.410Z,6.22
2019-02-03T23:09:34.046Z,6.08
2019-02-03T23:12:08.894Z,6.33
2019-02-03T23:14:40.718Z,6.05
2019-02-03T23:17:12.505Z,7.00
2019-02-03T23:19:46.621Z,6.00
2019-02-03T23:22:21.363Z,6.03
2019-02-03T23:24:56.023Z,6.17
2019-02-03T23:27:27.544Z,6.83
2019-02-03T23:29:59.177Z,6.55
2019-02-03T23:32:30.658Z,5.72
2019-02-03T23:35:02.448Z,6.37
2019-02-03T23:37:34.571Z,6.95
2019-02-03T23:40:08.087Z,6.08
2019-02-03T23:42:39.585Z,6.53
2019-02-03T23:45:11.011Z,6.80
2019-02-03T23:47:42.518Z,7.62
2019-02-03T23:50:14.835Z,7.65
2019-02-03T23:52:46.248Z,7.30
2019-02-03T23:55:18.022Z,6.83
2019-02-03T23:57:49.490Z,7.05
